sensor_id;sensor_type;location;lat;lon;timestamp;P1;durP1;ratioP1;P2;durP2;ratioP2
67554;SDS011;54385;53.516;49.456;2023-03-23T00:01:10;27.13;;;10.45;;
67554;SDS011;54385;53.516;49.456;2023-03-23T00:03:39;29.95;;;9.20;;
67554;SDS011;54385;53.516;49.456;2023-03-23T00:06:07;25.50;;;10.35;;
67554;SDS011;54385;53.516;49.456;2023-03-23T00:08:36;27.15;;;9.60;;
67554;SDS011;54385;53.516;49.456;2023-03-23T00:11:14;24.92;;;9.70;;
67554;SDS011;54385;53.516;49.456;2023-03-23T00:13:45;24.70;;;10.07;;
67554;SDS011;54385;53.516;49.456;2023-03-23T00:16:17;20.60;;;9.32;;
67554;SDS011;54385;53.516;49.456;2023-03-23T00:18:57;26.83;;;9.50;;
67554;SDS011;54385;53.516;49.456;2023-03-23T00:21:26;24.90;;;9.32;;
67554;SDS011;54385;53.516;49.456;2023-03-23T00:24:06;24.83;;;9.60;;
67554;SDS011;54385;53.516;49.456;2023-03-23T00:26:36;19.60;;;7.75;;
67554;SDS011;54385;53.516;49.456;2023-03-23T00:29:10;17.25;;;7.75;;
67554;SDS011;54385;53.516;49.456;2023-03-23T00:31:42;23.17;;;8.05;;
67554;SDS011;54385;53.516;49.456;2023-03-23T00:34:14;24.45;;;7.82;;
67554;SDS011;54385;53.516;49.456;2023-03-23T00:36:46;22.70;;;10.18;;
67554;SDS011;54385;53.516;49.456;2023-03-23T00:39:14;26.63;;;8.18;;
67554;SDS011;54385;53.516;49.456;2023-03-23T00:41:44;24.70;;;8.40;;
67554;SDS011;54385;53.516;49.456;2023-03-23T00:44:12;17.40;;;9.15;;
67554;SDS011;54385;53.516;49.456;2023-03-23T00:46:43;26.27;;;9.35;;
67554;SDS011;54385;53.516;49.456;2023-03-23T00:49:14;22.08;;;8.43;;
67554;SDS011;54385;53.516;49.456;2023-03-23T00:51:46;19.00;;;8.35;;
67554;SDS011;54385;53.516;49.456;2023-03-23T00:54:12;26.67;;;8.95;;
67554;SDS011;54385;53.516;49.456;2023-03-23T00:56:39;32.45;;;12.13;;
67554;SDS011;54385;53.516;49.456;2023-03-23T01:01:33;21.42;;;9.40;;
67554;SDS011;54385;53.516;49.456;2023-03-23T01:04:01;25.52;;;8.80;;
67554;SDS011;54385;53.516;49.456;2023-03-23T01:06:34;24.38;;;8.75;;
67554;SDS011;54385;53.516;49.456;2023-03-23T01:09:09;19.90;;;9.10;;
67554;SDS011;54385;53.516;49.456;2023-03-23T01:11:41;25.83;;;10.85;;
67554;SDS011;54385;53.516;49.456;2023-03-23T01:14:09;22.42;;;11.68;;
67554;SDS011;54385;53.516;49.456;2023-03-23T01:16:36;24.85;;;11.75;;
67554;SDS011;54385;53.516;49.456;2023-03-23T01:19:03;23.85;;;11.25;;
67554;SDS011;54385;53.516;49.456;2023-03-23T01:21:30;20.35;;;10.05;;
67554;SDS011;54385;53.516;49.456;2023-03-23T01:23:57;19.73;;;9.88;;
67554;SDS011;54385;53.516;49.456;2023-03-23T01:28:52;15.63;;;8.82;;
67554;SDS011;54385;53.516;49.456;2023-03-23T01:31:20;25.35;;;8.60;;
67554;SDS011;54385;53.516;49.456;2023-03-23T01:33:49;19.70;;;8.32;;
67554;SDS011;54385;53.516;49.456;2023-03-23T01:36:27;20.95;;;7.57;;
67554;SDS011;54385;53.516;49.456;2023-03-23T01:38:59;17.35;;;6.93;;
67554;SDS011;54385;53.516;49.456;2023-03-23T01:41:29;15.73;;;7.30;;
67554;SDS011;54385;53.516;49.456;2023-03-23T01:46:33;17.52;;;7.57;;
67554;SDS011;54385;53.516;49.456;2023-03-23T01:49:03;17.42;;;7.65;;
67554;SDS011;54385;53.516;49.456;2023-03-23T01:51:37;19.08;;;9.15;;
67554;SDS011;54385;53.516;49.456;2023-03-23T01:54:11;16.58;;;8.00;;
67554;SDS011;54385;53.516;49.456;2023-03-23T01:56:41;16.85;;;7.75;;
67554;SDS011;54385;53.516;49.456;2023-03-23T01:59:13;17.20;;;8.32;;
67554;SDS011;54385;53.516;49.456;2023-03-23T02:01:44;15.75;;;6.72;;
67554;SDS011;54385;53.516;49.456;2023-03-23T02:04:13;14.40;;;7.00;;
67554;SDS011;54385;53.516;49.456;2023-03-23T02:06:42;13.82;;;7.30;;
67554;SDS011;54385;53.516;49.456;2023-03-23T02:09:21;18.85;;;7.32;;
67554;SDS011;54385;53.516;49.456;2023-03-23T02:11:48;16.85;;;7.38;;
67554;SDS011;54385;53.516;49.456;2023-03-23T02:14:16;16.08;;;7.20;;
67554;SDS011;54385;53.516;49.456;2023-03-23T02:16:45;16.83;;;7.80;;
67554;SDS011;54385;53.516;49.456;2023-03-23T02:24:56;15.52;;;7.13;;
67554;SDS011;54385;53.516;49.456;2023-03-23T02:31:12;12.73;;;7.68;;
67554;SDS011;54385;53.516;49.456;2023-03-23T02:34:17;13.18;;;6.22;;
67554;SDS011;54385;53.516;49.456;2023-03-23T02:39:20;16.55;;;8.00;;
67554;SDS011;54385;53.516;49.456;2023-03-23T02:41:52;16.77;;;7.95;;
67554;SDS011;54385;53.516;49.456;2023-03-23T02:44:29;19.88;;;7.50;;
67554;SDS011;54385;53.516;49.456;2023-03-23T02:46:59;20.88;;;7.47;;
67554;SDS011;54385;53.516;49.456;2023-03-23T02:49:31;15.38;;;7.93;;
67554;SDS011;54385;53.516;49.456;2023-03-23T02:52:04;14.95;;;6.43;;
67554;SDS011;54385;53.516;49.456;2023-03-23T02:57:05;15.48;;;7.57;;
67554;SDS011;54385;53.516;49.456;2023-03-23T02:59:33;18.27;;;7.32;;
67554;SDS011;54385;53.516;49.456;2023-03-23T03:02:13;22.25;;;8.55;;
67554;SDS011;54385;53.516;49.456;2023-03-23T03:05:08;23.52;;;8.52;;
67554;SDS011;54385;53.516;49.456;2023-03-23T03:10:49;26.40;;;11.25;;
67554;SDS011;54385;53.516;49.456;2023-03-23T03:13:24;17.17;;;9.23;;
67554;SDS011;54385;53.516;49.456;2023-03-23T03:16:23;16.23;;;8.32;;
67554;SDS011;54385;53.516;49.456;2023-03-23T03:19:09;28.67;;;11.23;;
67554;SDS011;54385;53.516;49.456;2023-03-23T03:21:54;19.42;;;10.23;;
67554;SDS011;54385;53.516;49.456;2023-03-23T03:24:25;24.00;;;10.90;;
67554;SDS011;54385;53.516;49.456;2023-03-23T03:26:55;23.63;;;12.15;;
67554;SDS011;54385;53.516;49.456;2023-03-23T03:29:35;23.98;;;13.75;;
67554;SDS011;54385;53.516;49.456;2023-03-23T03:32:08;33.97;;;15.40;;
67554;SDS011;54385;53.516;49.456;2023-03-23T03:34:43;30.33;;;13.38;;
67554;SDS011;54385;53.516;49.456;2023-03-23T03:37:09;35.90;;;14.95;;
67554;SDS011;54385;53.516;49.456;2023-03-23T03:39:38;34.55;;;13.48;;
67554;SDS011;54385;53.516;49.456;2023-03-23T03:42:05;34.25;;;14.05;;
67554;SDS011;54385;53.516;49.456;2023-03-23T03:44:33;28.60;;;12.30;;
67554;SDS011;54385;53.516;49.456;2023-03-23T03:47:00;25.17;;;10.02;;
67554;SDS011;54385;53.516;49.456;2023-03-23T03:51:56;26.92;;;10.38;;
67554;SDS011;54385;53.516;49.456;2023-03-23T03:54:25;23.50;;;9.80;;
67554;SDS011;54385;53.516;49.456;2023-03-23T03:56:52;31.42;;;10.63;;
67554;SDS011;54385;53.516;49.456;2023-03-23T03:59:23;25.25;;;10.27;;
67554;SDS011;54385;53.516;49.456;2023-03-23T04:01:51;24.13;;;9.20;;
67554;SDS011;54385;53.516;49.456;2023-03-23T04:04:20;24.40;;;9.30;;
67554;SDS011;54385;53.516;49.456;2023-03-23T04:06:48;19.20;;;7.78;;
67554;SDS011;54385;53.516;49.456;2023-03-23T04:09:14;19.00;;;9.10;;
67554;SDS011;54385;53.516;49.456;2023-03-23T04:11:41;14.48;;;6.22;;
67554;SDS011;54385;53.516;49.456;2023-03-23T04:14:08;13.45;;;7.47;;
67554;SDS011;54385;53.516;49.456;2023-03-23T04:16:35;12.93;;;6.53;;
67554;SDS011;54385;53.516;49.456;2023-03-23T04:19:02;21.75;;;7.40;;
67554;SDS011;54385;53.516;49.456;2023-03-23T04:21:29;12.40;;;6.80;;
67554;SDS011;54385;53.516;49.456;2023-03-23T04:23:56;22.98;;;8.43;;
67554;SDS011;54385;53.516;49.456;2023-03-23T04:26:27;18.88;;;8.05;;
67554;SDS011;54385;53.516;49.456;2023-03-23T04:28:57;14.48;;;6.85;;
67554;SDS011;54385;53.516;49.456;2023-03-23T04:31:27;11.65;;;6.10;;
67554;SDS011;54385;53.516;49.456;2023-03-23T04:33:54;10.07;;;5.32;;
67554;SDS011;54385;53.516;49.456;2023-03-23T04:36:21;9.95;;;5.18;;
67554;SDS011;54385;53.516;49.456;2023-03-23T04:38:48;12.40;;;6.05;;
67554;SDS011;54385;53.516;49.456;2023-03-23T04:41:16;9.60;;;5.68;;
67554;SDS011;54385;53.516;49.456;2023-03-23T04:43:43;12.27;;;5.78;;
67554;SDS011;54385;53.516;49.456;2023-03-23T04:46:11;14.18;;;5.55;;
67554;SDS011;54385;53.516;49.456;2023-03-23T04:51:16;12.88;;;5.63;;
67554;SDS011;54385;53.516;49.456;2023-03-23T04:53:44;11.73;;;5.63;;
67554;SDS011;54385;53.516;49.456;2023-03-23T04:56:11;10.02;;;4.95;;
67554;SDS011;54385;53.516;49.456;2023-03-23T04:58:39;28.45;;;6.40;;
67554;SDS011;54385;53.516;49.456;2023-03-23T05:01:09;23.25;;;8.10;;
67554;SDS011;54385;53.516;49.456;2023-03-23T05:03:36;15.60;;;6.10;;
67554;SDS011;54385;53.516;49.456;2023-03-23T05:06:03;11.68;;;6.00;;
67554;SDS011;54385;53.516;49.456;2023-03-23T05:08:30;10.90;;;5.45;;
67554;SDS011;54385;53.516;49.456;2023-03-23T05:10:58;12.20;;;5.82;;
67554;SDS011;54385;53.516;49.456;2023-03-23T05:13:27;14.02;;;5.65;;
67554;SDS011;54385;53.516;49.456;2023-03-23T05:15:55;17.65;;;5.63;;
67554;SDS011;54385;53.516;49.456;2023-03-23T05:18:24;10.82;;;4.43;;
67554;SDS011;54385;53.516;49.456;2023-03-23T05:20:54;12.73;;;5.55;;
67554;SDS011;54385;53.516;49.456;2023-03-23T05:23:25;12.82;;;4.60;;
67554;SDS011;54385;53.516;49.456;2023-03-23T05:25:53;8.93;;;4.30;;
67554;SDS011;54385;53.516;49.456;2023-03-23T05:28:26;12.93;;;4.65;;
67554;SDS011;54385;53.516;49.456;2023-03-23T05:30:54;10.40;;;5.05;;
67554;SDS011;54385;53.516;49.456;2023-03-23T05:33:21;13.63;;;5.40;;
67554;SDS011;54385;53.516;49.456;2023-03-23T05:35:49;12.00;;;4.55;;
67554;SDS011;54385;53.516;49.456;2023-03-23T05:38:23;7.68;;;4.20;;
67554;SDS011;54385;53.516;49.456;2023-03-23T05:41:12;16.88;;;4.57;;
67554;SDS011;54385;53.516;49.456;2023-03-23T05:43:46;7.18;;;4.05;;
67554;SDS011;54385;53.516;49.456;2023-03-23T05:46:14;13.63;;;5.30;;
67554;SDS011;54385;53.516;49.456;2023-03-23T05:49:09;6.70;;;4.93;;
67554;SDS011;54385;53.516;49.456;2023-03-23T05:51:46;14.20;;;5.22;;
67554;SDS011;54385;53.516;49.456;2023-03-23T05:54:19;11.98;;;4.97;;
67554;SDS011;54385;53.516;49.456;2023-03-23T05:56:53;12.30;;;5.32;;
67554;SDS011;54385;53.516;49.456;2023-03-23T05:59:35;10.95;;;5.72;;
67554;SDS011;54385;53.516;49.456;2023-03-23T06:02:04;12.95;;;5.07;;
67554;SDS011;54385;53.516;49.456;2023-03-23T06:04:40;19.20;;;5.25;;
67554;SDS011;54385;53.516;49.456;2023-03-23T06:07:11;11.38;;;5.15;;
67554;SDS011;54385;53.516;49.456;2023-03-23T06:09:53;15.80;;;5.03;;
67554;SDS011;54385;53.516;49.456;2023-03-23T06:12:20;7.88;;;4.68;;
67554;SDS011;54385;53.516;49.456;2023-03-23T06:14:48;10.90;;;5.53;;
67554;SDS011;54385;53.516;49.456;2023-03-23T06:17:15;11.70;;;5.40;;
67554;SDS011;54385;53.516;49.456;2023-03-23T06:19:43;13.15;;;4.78;;
67554;SDS011;54385;53.516;49.456;2023-03-23T06:22:12;9.75;;;4.88;;
67554;SDS011;54385;53.516;49.456;2023-03-23T06:24:40;10.18;;;5.90;;
67554;SDS011;54385;53.516;49.456;2023-03-23T06:27:07;12.45;;;5.47;;
67554;SDS011;54385;53.516;49.456;2023-03-23T06:29:35;9.15;;;4.95;;
67554;SDS011;54385;53.516;49.456;2023-03-23T06:32:06;11.95;;;5.63;;
67554;SDS011;54385;53.516;49.456;2023-03-23T06:34:33;11.07;;;5.15;;
67554;SDS011;54385;53.516;49.456;2023-03-23T06:37:00;12.52;;;6.03;;
67554;SDS011;54385;53.516;49.456;2023-03-23T06:39:31;8.07;;;5.00;;
67554;SDS011;54385;53.516;49.456;2023-03-23T06:42:11;13.90;;;5.60;;
67554;SDS011;54385;53.516;49.456;2023-03-23T06:44:40;9.35;;;4.90;;
67554;SDS011;54385;53.516;49.456;2023-03-23T06:47:07;10.23;;;4.75;;
67554;SDS011;54385;53.516;49.456;2023-03-23T06:49:34;14.80;;;5.13;;
67554;SDS011;54385;53.516;49.456;2023-03-23T06:52:02;13.40;;;4.38;;
67554;SDS011;54385;53.516;49.456;2023-03-23T06:54:29;10.98;;;4.13;;
67554;SDS011;54385;53.516;49.456;2023-03-23T06:56:56;4.63;;;3.25;;
67554;SDS011;54385;53.516;49.456;2023-03-23T06:59:23;7.15;;;3.22;;
67554;SDS011;54385;53.516;49.456;2023-03-23T07:01:51;5.25;;;2.38;;
67554;SDS011;54385;53.516;49.456;2023-03-23T07:04:18;4.32;;;2.45;;
67554;SDS011;54385;53.516;49.456;2023-03-23T07:06:48;11.75;;;3.45;;
67554;SDS011;54385;53.516;49.456;2023-03-23T07:09:15;7.05;;;3.22;;
67554;SDS011;54385;53.516;49.456;2023-03-23T07:11:48;3.70;;;1.92;;
67554;SDS011;54385;53.516;49.456;2023-03-23T07:14:17;9.75;;;3.58;;
67554;SDS011;54385;53.516;49.456;2023-03-23T07:16:44;11.93;;;3.22;;
67554;SDS011;54385;53.516;49.456;2023-03-23T07:19:12;8.05;;;3.65;;
67554;SDS011;54385;53.516;49.456;2023-03-23T07:21:38;5.10;;;2.90;;
67554;SDS011;54385;53.516;49.456;2023-03-23T07:24:06;3.85;;;2.85;;
67554;SDS011;54385;53.516;49.456;2023-03-23T07:26:37;7.22;;;2.28;;
67554;SDS011;54385;53.516;49.456;2023-03-23T07:29:04;7.85;;;2.90;;
67554;SDS011;54385;53.516;49.456;2023-03-23T07:31:31;5.50;;;2.22;;
67554;SDS011;54385;53.516;49.456;2023-03-23T07:33:58;5.38;;;2.90;;
67554;SDS011;54385;53.516;49.456;2023-03-23T07:36:28;7.03;;;2.90;;
67554;SDS011;54385;53.516;49.456;2023-03-23T07:38:56;5.43;;;2.83;;
67554;SDS011;54385;53.516;49.456;2023-03-23T07:41:24;6.95;;;2.80;;
67554;SDS011;54385;53.516;49.456;2023-03-23T07:43:51;3.88;;;2.38;;
67554;SDS011;54385;53.516;49.456;2023-03-23T07:46:18;3.90;;;2.45;;
67554;SDS011;54385;53.516;49.456;2023-03-23T07:48:49;17.75;;;3.15;;
67554;SDS011;54385;53.516;49.456;2023-03-23T07:51:19;4.65;;;2.75;;
67554;SDS011;54385;53.516;49.456;2023-03-23T07:53:45;11.88;;;2.95;;
67554;SDS011;54385;53.516;49.456;2023-03-23T07:56:16;5.38;;;2.92;;
67554;SDS011;54385;53.516;49.456;2023-03-23T07:58:45;5.28;;;2.60;;
67554;SDS011;54385;53.516;49.456;2023-03-23T08:01:13;9.05;;;3.03;;
67554;SDS011;54385;53.516;49.456;2023-03-23T08:03:46;4.75;;;2.70;;
67554;SDS011;54385;53.516;49.456;2023-03-23T08:06:13;4.88;;;2.58;;
67554;SDS011;54385;53.516;49.456;2023-03-23T08:08:46;5.20;;;2.85;;
67554;SDS011;54385;53.516;49.456;2023-03-23T08:11:13;3.92;;;2.28;;
67554;SDS011;54385;53.516;49.456;2023-03-23T08:13:41;4.60;;;2.55;;
67554;SDS011;54385;53.516;49.456;2023-03-23T08:16:09;6.55;;;2.80;;
67554;SDS011;54385;53.516;49.456;2023-03-23T08:18:37;4.30;;;2.67;;
67554;SDS011;54385;53.516;49.456;2023-03-23T08:21:10;5.07;;;2.70;;
67554;SDS011;54385;53.516;49.456;2023-03-23T08:23:38;5.43;;;2.70;;
67554;SDS011;54385;53.516;49.456;2023-03-23T08:26:06;4.13;;;3.00;;
67554;SDS011;54385;53.516;49.456;2023-03-23T08:28:34;4.45;;;2.88;;
67554;SDS011;54385;53.516;49.456;2023-03-23T08:31:09;3.88;;;2.80;;
67554;SDS011;54385;53.516;49.456;2023-03-23T08:33:41;9.95;;;3.40;;
67554;SDS011;54385;53.516;49.456;2023-03-23T08:36:09;31.20;;;5.03;;
67554;SDS011;54385;53.516;49.456;2023-03-23T08:38:36;6.78;;;3.10;;
67554;SDS011;54385;53.516;49.456;2023-03-23T08:41:04;5.90;;;3.58;;
67554;SDS011;54385;53.516;49.456;2023-03-23T08:43:35;9.10;;;3.40;;
67554;SDS011;54385;53.516;49.456;2023-03-23T08:46:02;5.57;;;2.83;;
67554;SDS011;54385;53.516;49.456;2023-03-23T08:48:32;13.00;;;3.53;;
67554;SDS011;54385;53.516;49.456;2023-03-23T08:51:05;6.50;;;3.35;;
67554;SDS011;54385;53.516;49.456;2023-03-23T08:53:32;5.53;;;3.60;;
67554;SDS011;54385;53.516;49.456;2023-03-23T08:56:07;10.90;;;2.80;;
67554;SDS011;54385;53.516;49.456;2023-03-23T08:58:45;6.97;;;3.30;;
67554;SDS011;54385;53.516;49.456;2023-03-23T09:01:16;10.57;;;3.33;;
67554;SDS011;54385;53.516;49.456;2023-03-23T09:03:44;22.15;;;4.28;;
67554;SDS011;54385;53.516;49.456;2023-03-23T09:06:25;39.33;;;5.63;;
67554;SDS011;54385;53.516;49.456;2023-03-23T09:08:52;7.82;;;3.47;;
67554;SDS011;54385;53.516;49.456;2023-03-23T09:11:52;9.05;;;2.97;;
67554;SDS011;54385;53.516;49.456;2023-03-23T09:14:36;5.85;;;2.58;;
67554;SDS011;54385;53.516;49.456;2023-03-23T09:17:04;30.15;;;4.85;;
67554;SDS011;54385;53.516;49.456;2023-03-23T09:19:37;24.38;;;4.82;;
67554;SDS011;54385;53.516;49.456;2023-03-23T09:22:05;13.75;;;3.75;;
67554;SDS011;54385;53.516;49.456;2023-03-23T09:24:33;9.00;;;3.55;;
67554;SDS011;54385;53.516;49.456;2023-03-23T09:27:04;10.48;;;4.07;;
67554;SDS011;54385;53.516;49.456;2023-03-23T09:29:31;6.57;;;3.40;;
67554;SDS011;54385;53.516;49.456;2023-03-23T09:31:58;6.35;;;3.22;;
67554;SDS011;54385;53.516;49.456;2023-03-23T09:34:26;9.48;;;3.40;;
67554;SDS011;54385;53.516;49.456;2023-03-23T09:36:55;4.32;;;2.78;;
67554;SDS011;54385;53.516;49.456;2023-03-23T09:39:22;7.93;;;2.70;;
67554;SDS011;54385;53.516;49.456;2023-03-23T09:47:08;14.73;;;3.10;;
67554;SDS011;54385;53.516;49.456;2023-03-23T09:49:56;8.30;;;3.10;;
67554;SDS011;54385;53.516;49.456;2023-03-23T09:52:36;7.53;;;3.35;;
67554;SDS011;54385;53.516;49.456;2023-03-23T09:55:04;48.72;;;6.05;;
67554;SDS011;54385;53.516;49.456;2023-03-23T09:57:36;6.00;;;4.07;;
67554;SDS011;54385;53.516;49.456;2023-03-23T10:00:10;18.52;;;4.40;;
67554;SDS011;54385;53.516;49.456;2023-03-23T10:03:17;6.25;;;3.10;;
67554;SDS011;54385;53.516;49.456;2023-03-23T10:05:48;7.03;;;4.07;;
67554;SDS011;54385;53.516;49.456;2023-03-23T10:08:18;10.50;;;3.53;;
67554;SDS011;54385;53.516;49.456;2023-03-23T10:16:29;12.43;;;3.67;;
67554;SDS011;54385;53.516;49.456;2023-03-23T10:21:51;12.50;;;4.40;;
67554;SDS011;54385;53.516;49.456;2023-03-23T10:24:29;10.82;;;4.00;;
67554;SDS011;54385;53.516;49.456;2023-03-23T10:29:52;17.27;;;5.30;;
67554;SDS011;54385;53.516;49.456;2023-03-23T10:32:39;13.50;;;4.45;;
67554;SDS011;54385;53.516;49.456;2023-03-23T10:35:17;12.93;;;4.70;;
67554;SDS011;54385;53.516;49.456;2023-03-23T10:37:50;9.35;;;4.93;;
67554;SDS011;54385;53.516;49.456;2023-03-23T10:40:29;11.52;;;3.85;;
67554;SDS011;54385;53.516;49.456;2023-03-23T10:43:01;9.60;;;4.15;;
67554;SDS011;54385;53.516;49.456;2023-03-23T10:45:29;13.30;;;4.38;;
67554;SDS011;54385;53.516;49.456;2023-03-23T10:48:16;9.63;;;4.63;;
67554;SDS011;54385;53.516;49.456;2023-03-23T10:50:49;8.60;;;4.55;;
67554;SDS011;54385;53.516;49.456;2023-03-23T10:53:24;7.43;;;3.97;;
67554;SDS011;54385;53.516;49.456;2023-03-23T10:56:56;13.18;;;4.55;;
67554;SDS011;54385;53.516;49.456;2023-03-23T10:59:15;8.50;;;4.38;;
67554;SDS011;54385;53.516;49.456;2023-03-23T11:01:48;9.10;;;4.70;;
67554;SDS011;54385;53.516;49.456;2023-03-23T11:04:21;13.07;;;5.15;;
67554;SDS011;54385;53.516;49.456;2023-03-23T11:06:58;8.20;;;4.70;;
67554;SDS011;54385;53.516;49.456;2023-03-23T11:09:35;7.60;;;4.38;;
67554;SDS011;54385;53.516;49.456;2023-03-23T11:12:04;15.65;;;5.75;;
67554;SDS011;54385;53.516;49.456;2023-03-23T11:14:32;13.02;;;5.40;;
67554;SDS011;54385;53.516;49.456;2023-03-23T11:17:05;37.70;;;7.80;;
67554;SDS011;54385;53.516;49.456;2023-03-23T11:19:48;17.42;;;5.45;;
67554;SDS011;54385;53.516;49.456;2023-03-23T11:22:33;14.00;;;5.40;;
67554;SDS011;54385;53.516;49.456;2023-03-23T11:25:03;7.32;;;5.22;;
67554;SDS011;54385;53.516;49.456;2023-03-23T11:27:33;15.88;;;5.85;;
67554;SDS011;54385;53.516;49.456;2023-03-23T11:30:07;7.68;;;5.13;;
67554;SDS011;54385;53.516;49.456;2023-03-23T11:32:45;11.50;;;6.63;;
67554;SDS011;54385;53.516;49.456;2023-03-23T11:35:20;14.20;;;5.75;;
67554;SDS011;54385;53.516;49.456;2023-03-23T11:37:54;10.10;;;5.72;;
67554;SDS011;54385;53.516;49.456;2023-03-23T11:40:29;14.50;;;6.18;;
67554;SDS011;54385;53.516;49.456;2023-03-23T11:45:39;9.70;;;5.70;;
67554;SDS011;54385;53.516;49.456;2023-03-23T11:48:19;14.25;;;5.18;;
67554;SDS011;54385;53.516;49.456;2023-03-23T11:51:01;17.05;;;7.10;;
67554;SDS011;54385;53.516;49.456;2023-03-23T11:56:13;38.42;;;7.07;;
67554;SDS011;54385;53.516;49.456;2023-03-23T11:58:43;15.02;;;4.95;;
67554;SDS011;54385;53.516;49.456;2023-03-23T12:17:59;11.98;;;5.68;;
67554;SDS011;54385;53.516;49.456;2023-03-23T12:20:58;8.10;;;5.75;;
67554;SDS011;54385;53.516;49.456;2023-03-23T12:26:19;10.80;;;5.28;;
67554;SDS011;54385;53.516;49.456;2023-03-23T12:29:23;12.27;;;5.97;;
67554;SDS011;54385;53.516;49.456;2023-03-23T12:32:16;27.90;;;6.78;;
67554;SDS011;54385;53.516;49.456;2023-03-23T12:38:20;18.05;;;7.03;;
67554;SDS011;54385;53.516;49.456;2023-03-23T12:40:55;14.80;;;6.60;;
67554;SDS011;54385;53.516;49.456;2023-03-23T12:51:48;9.95;;;6.03;;
67554;SDS011;54385;53.516;49.456;2023-03-23T12:54:42;14.43;;;6.28;;
67554;SDS011;54385;53.516;49.456;2023-03-23T12:57:45;23.10;;;7.88;;
67554;SDS011;54385;53.516;49.456;2023-03-23T13:03:26;13.13;;;6.85;;
67554;SDS011;54385;53.516;49.456;2023-03-23T13:08:35;18.38;;;7.30;;
67554;SDS011;54385;53.516;49.456;2023-03-23T13:11:08;17.95;;;8.40;;
67554;SDS011;54385;53.516;49.456;2023-03-23T13:13:43;14.77;;;6.38;;
67554;SDS011;54385;53.516;49.456;2023-03-23T13:16:26;15.38;;;7.68;;
67554;SDS011;54385;53.516;49.456;2023-03-23T13:25:02;18.88;;;6.93;;
67554;SDS011;54385;53.516;49.456;2023-03-23T13:27:35;15.63;;;7.47;;
67554;SDS011;54385;53.516;49.456;2023-03-23T13:30:01;11.07;;;6.78;;
67554;SDS011;54385;53.516;49.456;2023-03-23T13:32:37;11.88;;;6.50;;
67554;SDS011;54385;53.516;49.456;2023-03-23T13:35:16;13.70;;;7.43;;
67554;SDS011;54385;53.516;49.456;2023-03-23T13:37:45;17.58;;;5.97;;
67554;SDS011;54385;53.516;49.456;2023-03-23T13:40:28;14.45;;;7.00;;
67554;SDS011;54385;53.516;49.456;2023-03-23T13:42:58;25.02;;;7.65;;
67554;SDS011;54385;53.516;49.456;2023-03-23T13:48:03;12.10;;;7.32;;
67554;SDS011;54385;53.516;49.456;2023-03-23T13:53:25;11.63;;;7.45;;
67554;SDS011;54385;53.516;49.456;2023-03-23T13:56:05;11.73;;;6.95;;
67554;SDS011;54385;53.516;49.456;2023-03-23T13:58:49;14.20;;;7.50;;
67554;SDS011;54385;53.516;49.456;2023-03-23T14:01:32;14.38;;;7.57;;
67554;SDS011;54385;53.516;49.456;2023-03-23T14:04:03;16.27;;;7.40;;
67554;SDS011;54385;53.516;49.456;2023-03-23T14:06:33;16.75;;;8.40;;
67554;SDS011;54385;53.516;49.456;2023-03-23T14:09:18;16.15;;;8.35;;
67554;SDS011;54385;53.516;49.456;2023-03-23T14:11:58;14.35;;;7.40;;
67554;SDS011;54385;53.516;49.456;2023-03-23T14:14:42;21.17;;;8.05;;
67554;SDS011;54385;53.516;49.456;2023-03-23T14:17:22;20.45;;;9.02;;
67554;SDS011;54385;53.516;49.456;2023-03-23T14:19:54;16.85;;;8.30;;
67554;SDS011;54385;53.516;49.456;2023-03-23T14:22:33;19.42;;;8.55;;
67554;SDS011;54385;53.516;49.456;2023-03-23T14:25:08;18.75;;;9.75;;
67554;SDS011;54385;53.516;49.456;2023-03-23T14:27:43;17.25;;;8.32;;
67554;SDS011;54385;53.516;49.456;2023-03-23T14:30:20;17.00;;;7.90;;
67554;SDS011;54385;53.516;49.456;2023-03-23T14:32:51;16.00;;;7.95;;
67554;SDS011;54385;53.516;49.456;2023-03-23T14:35:26;15.98;;;8.63;;
67554;SDS011;54385;53.516;49.456;2023-03-23T14:40:29;32.63;;;9.77;;
67554;SDS011;54385;53.516;49.456;2023-03-23T14:42:57;17.15;;;8.90;;
67554;SDS011;54385;53.516;49.456;2023-03-23T14:45:25;17.23;;;8.15;;
67554;SDS011;54385;53.516;49.456;2023-03-23T14:48:01;20.05;;;9.07;;
67554;SDS011;54385;53.516;49.456;2023-03-23T14:50:51;18.58;;;10.02;;
67554;SDS011;54385;53.516;49.456;2023-03-23T14:53:21;16.70;;;8.70;;
67554;SDS011;54385;53.516;49.456;2023-03-23T14:55:52;22.23;;;9.75;;
67554;SDS011;54385;53.516;49.456;2023-03-23T14:58:22;21.48;;;8.32;;
67554;SDS011;54385;53.516;49.456;2023-03-23T15:00:54;16.30;;;8.38;;
67554;SDS011;54385;53.516;49.456;2023-03-23T15:03:25;22.40;;;9.98;;
67554;SDS011;54385;53.516;49.456;2023-03-23T15:05:54;16.30;;;8.00;;
67554;SDS011;54385;53.516;49.456;2023-03-23T15:08:26;20.02;;;9.23;;
67554;SDS011;54385;53.516;49.456;2023-03-23T15:10:59;21.90;;;7.68;;
67554;SDS011;54385;53.516;49.456;2023-03-23T15:13:34;18.88;;;8.57;;
67554;SDS011;54385;53.516;49.456;2023-03-23T15:16:03;28.83;;;9.52;;
67554;SDS011;54385;53.516;49.456;2023-03-23T15:18:36;15.48;;;7.32;;
67554;SDS011;54385;53.516;49.456;2023-03-23T15:21:08;22.60;;;8.15;;
67554;SDS011;54385;53.516;49.456;2023-03-23T15:23:40;17.83;;;8.55;;
67554;SDS011;54385;53.516;49.456;2023-03-23T15:26:15;19.45;;;7.53;;
67554;SDS011;54385;53.516;49.456;2023-03-23T15:29:28;13.98;;;7.47;;
67554;SDS011;54385;53.516;49.456;2023-03-23T15:31:52;14.82;;;7.15;;
67554;SDS011;54385;53.516;49.456;2023-03-23T15:37:20;11.60;;;7.55;;
67554;SDS011;54385;53.516;49.456;2023-03-23T15:39:51;12.45;;;7.05;;
67554;SDS011;54385;53.516;49.456;2023-03-23T15:44:58;14.25;;;6.85;;
67554;SDS011;54385;53.516;49.456;2023-03-23T15:55:20;13.85;;;6.95;;
67554;SDS011;54385;53.516;49.456;2023-03-23T15:57:49;11.88;;;7.82;;
67554;SDS011;54385;53.516;49.456;2023-03-23T16:00:20;13.55;;;7.50;;
67554;SDS011;54385;53.516;49.456;2023-03-23T16:02:54;13.25;;;7.57;;
67554;SDS011;54385;53.516;49.456;2023-03-23T16:05:25;19.60;;;8.48;;
67554;SDS011;54385;53.516;49.456;2023-03-23T16:07:52;12.93;;;7.65;;
67554;SDS011;54385;53.516;49.456;2023-03-23T16:10:21;14.68;;;7.13;;
67554;SDS011;54385;53.516;49.456;2023-03-23T16:12:51;16.17;;;7.50;;
67554;SDS011;54385;53.516;49.456;2023-03-23T16:15:18;18.05;;;8.07;;
67554;SDS011;54385;53.516;49.456;2023-03-23T16:17:56;15.85;;;8.13;;
67554;SDS011;54385;53.516;49.456;2023-03-23T16:20:23;12.85;;;7.70;;
67554;SDS011;54385;53.516;49.456;2023-03-23T16:22:50;14.10;;;7.72;;
67554;SDS011;54385;53.516;49.456;2023-03-23T16:25:17;14.80;;;7.15;;
67554;SDS011;54385;53.516;49.456;2023-03-23T16:27:45;13.10;;;8.32;;
67554;SDS011;54385;53.516;49.456;2023-03-23T16:30:18;13.23;;;7.47;;
67554;SDS011;54385;53.516;49.456;2023-03-23T16:32:47;17.55;;;8.95;;
67554;SDS011;54385;53.516;49.456;2023-03-23T16:35:14;12.70;;;7.22;;
67554;SDS011;54385;53.516;49.456;2023-03-23T16:37:46;14.35;;;7.97;;
67554;SDS011;54385;53.516;49.456;2023-03-23T16:40:14;14.55;;;7.68;;
67554;SDS011;54385;53.516;49.456;2023-03-23T16:42:42;13.18;;;8.00;;
67554;SDS011;54385;53.516;49.456;2023-03-23T16:45:09;13.25;;;7.22;;
67554;SDS011;54385;53.516;49.456;2023-03-23T16:47:37;13.45;;;7.72;;
67554;SDS011;54385;53.516;49.456;2023-03-23T16:50:05;15.73;;;7.63;;